sensor_id;sensor_type;location;lat;lon;timestamp;temperature;humidity
51021;DHT22;38907;45.562;8.856;2023-05-28T00:02:24;20.00;99.90
51021;DHT22;38907;45.562;8.856;2023-05-28T00:07:27;20.20;99.90
51021;DHT22;38907;45.562;8.856;2023-05-28T00:12:31;20.10;99.90
51021;DHT22;38907;45.562;8.856;2023-05-28T00:17:32;20.00;99.90
51021;DHT22;38907;45.562;8.856;2023-05-28T00:22:36;20.00;99.90
51021;DHT22;38907;45.562;8.856;2023-05-28T00:27:38;20.10;99.90
51021;DHT22;38907;45.562;8.856;2023-05-28T00:32:40;20.00;99.90
51021;DHT22;38907;45.562;8.856;2023-05-28T00:37:43;20.10;99.90
51021;DHT22;38907;45.562;8.856;2023-05-28T00:42:45;20.00;99.90
51021;DHT22;38907;45.562;8.856;2023-05-28T00:47:47;19.70;99.90
51021;DHT22;38907;45.562;8.856;2023-05-28T00:52:51;19.50;99.90
51021;DHT22;38907;45.562;8.856;2023-05-28T00:57:53;19.40;99.90
51021;DHT22;38907;45.562;8.856;2023-05-28T01:02:56;19.40;99.90
51021;DHT22;38907;45.562;8.856;2023-05-28T01:07:59;19.30;99.90
51021;DHT22;38907;45.562;8.856;2023-05-28T01:13:05;19.20;99.90
51021;DHT22;38907;45.562;8.856;2023-05-28T01:18:07;19.20;99.90
51021;DHT22;38907;45.562;8.856;2023-05-28T01:23:11;19.10;99.90
51021;DHT22;38907;45.562;8.856;2023-05-28T01:28:20;19.10;99.90
51021;DHT22;38907;45.562;8.856;2023-05-28T01:33:22;19.00;99.90
51021;DHT22;38907;45.562;8.856;2023-05-28T01:38:25;19.10;99.90
51021;DHT22;38907;45.562;8.856;2023-05-28T01:43:29;19.00;99.90
51021;DHT22;38907;45.562;8.856;2023-05-28T01:48:31;18.90;99.90
51021;DHT22;38907;45.562;8.856;2023-05-28T01:53:33;18.80;99.90
51021;DHT22;38907;45.562;8.856;2023-05-28T01:58:36;18.90;99.90
51021;DHT22;38907;45.562;8.856;2023-05-28T02:03:38;18.70;99.90
51021;DHT22;38907;45.562;8.856;2023-05-28T02:08:40;18.60;99.90
51021;DHT22;38907;45.562;8.856;2023-05-28T02:13:43;18.70;99.90
51021;DHT22;38907;45.562;8.856;2023-05-28T02:18:45;18.80;99.90
51021;DHT22;38907;45.562;8.856;2023-05-28T02:23:48;18.70;99.90
51021;DHT22;38907;45.562;8.856;2023-05-28T02:28:52;18.90;99.90
51021;DHT22;38907;45.562;8.856;2023-05-28T02:33:54;18.90;99.90
51021;DHT22;38907;45.562;8.856;2023-05-28T02:38:55;19.10;99.90
51021;DHT22;38907;45.562;8.856;2023-05-28T02:43:59;19.10;99.90
51021;DHT22;38907;45.562;8.856;2023-05-28T02:49:00;19.20;99.90
51021;DHT22;38907;45.562;8.856;2023-05-28T02:54:02;19.10;99.90
51021;DHT22;38907;45.562;8.856;2023-05-28T02:59:06;18.90;99.90
51021;DHT22;38907;45.562;8.856;2023-05-28T03:04:08;18.80;99.90
51021;DHT22;38907;45.562;8.856;2023-05-28T03:09:09;18.60;99.90
51021;DHT22;38907;45.562;8.856;2023-05-28T03:14:13;18.60;99.90
51021;DHT22;38907;45.562;8.856;2023-05-28T03:19:15;18.60;99.90
51021;DHT22;38907;45.562;8.856;2023-05-28T03:24:17;18.60;99.90
51021;DHT22;38907;45.562;8.856;2023-05-28T03:29:20;18.40;99.90
51021;DHT22;38907;45.562;8.856;2023-05-28T03:34:22;18.50;99.90
51021;DHT22;38907;45.562;8.856;2023-05-28T03:39:24;18.30;99.90
51021;DHT22;38907;45.562;8.856;2023-05-28T03:44:27;18.30;99.90
51021;DHT22;38907;45.562;8.856;2023-05-28T03:49:29;18.40;99.90
51021;DHT22;38907;45.562;8.856;2023-05-28T03:54:31;18.40;99.90
51021;DHT22;38907;45.562;8.856;2023-05-28T03:59:34;18.50;99.90
51021;DHT22;38907;45.562;8.856;2023-05-28T04:04:36;18.50;99.90
51021;DHT22;38907;45.562;8.856;2023-05-28T04:09:38;18.40;99.90
51021;DHT22;38907;45.562;8.856;2023-05-28T04:14:42;18.40;99.90
51021;DHT22;38907;45.562;8.856;2023-05-28T04:19:44;18.30;99.90
51021;DHT22;38907;45.562;8.856;2023-05-28T04:24:46;18.30;99.90
51021;DHT22;38907;45.562;8.856;2023-05-28T04:29:49;18.20;99.90
51021;DHT22;38907;45.562;8.856;2023-05-28T04:34:52;18.20;99.90
51021;DHT22;38907;45.562;8.856;2023-05-28T04:39:55;18.30;99.90
51021;DHT22;38907;45.562;8.856;2023-05-28T04:44:58;18.30;99.90
51021;DHT22;38907;45.562;8.856;2023-05-28T04:50:01;18.30;99.90
51021;DHT22;38907;45.562;8.856;2023-05-28T04:55:05;18.30;99.90
51021;DHT22;38907;45.562;8.856;2023-05-28T05:00:10;18.40;99.90
51021;DHT22;38907;45.562;8.856;2023-05-28T05:05:14;18.40;99.90
51021;DHT22;38907;45.562;8.856;2023-05-28T05:10:17;18.40;99.90
51021;DHT22;38907;45.562;8.856;2023-05-28T05:15:20;18.40;99.90
51021;DHT22;38907;45.562;8.856;2023-05-28T05:20:22;18.60;99.90
51021;DHT22;38907;45.562;8.856;2023-05-28T05:25:24;18.70;99.90
51021;DHT22;38907;45.562;8.856;2023-05-28T05:30:27;18.90;99.90
51021;DHT22;38907;45.562;8.856;2023-05-28T05:35:29;19.00;99.90
51021;DHT22;38907;45.562;8.856;2023-05-28T05:40:31;19.30;99.90
51021;DHT22;38907;45.562;8.856;2023-05-28T05:45:34;19.40;99.90
51021;DHT22;38907;45.562;8.856;2023-05-28T05:50:47;19.40;99.90
51021;DHT22;38907;45.562;8.856;2023-05-28T05:55:49;19.60;99.90
51021;DHT22;38907;45.562;8.856;2023-05-28T06:00:52;19.70;99.90
51021;DHT22;38907;45.562;8.856;2023-05-28T06:05:54;19.70;99.90
51021;DHT22;38907;45.562;8.856;2023-05-28T06:10:56;19.80;99.90
51021;DHT22;38907;45.562;8.856;2023-05-28T06:15:59;20.10;99.90
51021;DHT22;38907;45.562;8.856;2023-05-28T06:21:01;20.20;99.90
51021;DHT22;38907;45.562;8.856;2023-05-28T06:26:04;20.30;99.90
51021;DHT22;38907;45.562;8.856;2023-05-28T06:31:07;20.40;99.90
51021;DHT22;38907;45.562;8.856;2023-05-28T06:36:09;20.50;99.90
51021;DHT22;38907;45.562;8.856;2023-05-28T06:41:11;20.70;99.90
51021;DHT22;38907;45.562;8.856;2023-05-28T06:46:15;20.70;99.90
51021;DHT22;38907;45.562;8.856;2023-05-28T06:51:17;20.80;99.90
51021;DHT22;38907;45.562;8.856;2023-05-28T06:56:18;20.90;99.90
51021;DHT22;38907;45.562;8.856;2023-05-28T07:01:22;20.90;99.90
51021;DHT22;38907;45.562;8.856;2023-05-28T07:06:24;21.20;99.90
51021;DHT22;38907;45.562;8.856;2023-05-28T07:11:26;21.30;99.90
51021;DHT22;38907;45.562;8.856;2023-05-28T07:16:29;21.40;99.90
51021;DHT22;38907;45.562;8.856;2023-05-28T07:21:31;21.50;99.90
51021;DHT22;38907;45.562;8.856;2023-05-28T07:26:33;21.60;99.90
51021;DHT22;38907;45.562;8.856;2023-05-28T07:31:37;21.90;99.90
51021;DHT22;38907;45.562;8.856;2023-05-28T07:36:39;22.00;99.90
51021;DHT22;38907;45.562;8.856;2023-05-28T07:41:40;22.30;99.90
51021;DHT22;38907;45.562;8.856;2023-05-28T07:46:44;22.40;99.90
51021;DHT22;38907;45.562;8.856;2023-05-28T07:51:45;22.50;99.90
51021;DHT22;38907;45.562;8.856;2023-05-28T07:56:47;22.60;99.90
51021;DHT22;38907;45.562;8.856;2023-05-28T08:01:51;22.70;99.90
51021;DHT22;38907;45.562;8.856;2023-05-28T08:06:53;22.70;99.90
51021;DHT22;38907;45.562;8.856;2023-05-28T08:11:55;22.80;99.90
51021;DHT22;38907;45.562;8.856;2023-05-28T08:16:58;23.00;99.90
51021;DHT22;38907;45.562;8.856;2023-05-28T08:22:00;23.00;99.90
51021;DHT22;38907;45.562;8.856;2023-05-28T08:27:03;23.00;99.90
51021;DHT22;38907;45.562;8.856;2023-05-28T08:32:07;23.10;99.90
51021;DHT22;38907;45.562;8.856;2023-05-28T08:37:09;23.30;99.90
51021;DHT22;38907;45.562;8.856;2023-05-28T08:42:11;23.50;99.90
51021;DHT22;38907;45.562;8.856;2023-05-28T08:47:15;23.60;99.90
51021;DHT22;38907;45.562;8.856;2023-05-28T08:52:19;23.80;99.90
51021;DHT22;38907;45.562;8.856;2023-05-28T08:57:22;23.80;99.90
51021;DHT22;38907;45.562;8.856;2023-05-28T09:02:25;23.80;99.90
51021;DHT22;38907;45.562;8.856;2023-05-28T09:07:27;23.80;99.90
51021;DHT22;38907;45.562;8.856;2023-05-28T09:12:29;24.00;99.90
51021;DHT22;38907;45.562;8.856;2023-05-28T09:17:37;24.10;99.90
51021;DHT22;38907;45.562;8.856;2023-05-28T09:22:39;24.20;99.90
51021;DHT22;38907;45.562;8.856;2023-05-28T09:27:43;24.20;99.90
51021;DHT22;38907;45.562;8.856;2023-05-28T09:32:55;24.20;99.90
51021;DHT22;38907;45.562;8.856;2023-05-28T09:38:05;24.30;99.90
51021;DHT22;38907;45.562;8.856;2023-05-28T09:43:08;24.30;99.90
51021;DHT22;38907;45.562;8.856;2023-05-28T09:48:12;24.50;99.90
51021;DHT22;38907;45.562;8.856;2023-05-28T09:53:15;24.60;99.90
51021;DHT22;38907;45.562;8.856;2023-05-28T09:58:17;24.40;99.90
51021;DHT22;38907;45.562;8.856;2023-05-28T10:03:24;24.30;99.90
51021;DHT22;38907;45.562;8.856;2023-05-28T10:08:27;24.30;99.90
51021;DHT22;38907;45.562;8.856;2023-05-28T10:13:30;24.20;99.90
51021;DHT22;38907;45.562;8.856;2023-05-28T10:18:34;24.30;99.90
51021;DHT22;38907;45.562;8.856;2023-05-28T10:23:37;24.60;99.90
51021;DHT22;38907;45.562;8.856;2023-05-28T10:28:39;25.00;99.90
51021;DHT22;38907;45.562;8.856;2023-05-28T10:33:42;25.20;99.90
51021;DHT22;38907;45.562;8.856;2023-05-28T10:38:45;25.00;99.90
51021;DHT22;38907;45.562;8.856;2023-05-28T10:43:48;24.80;99.90
51021;DHT22;38907;45.562;8.856;2023-05-28T10:49:16;24.90;99.90
51021;DHT22;38907;45.562;8.856;2023-05-28T10:54:23;25.10;99.90
51021;DHT22;38907;45.562;8.856;2023-05-28T10:59:36;25.10;99.90
51021;DHT22;38907;45.562;8.856;2023-05-28T11:04:40;25.00;99.90
51021;DHT22;38907;45.562;8.856;2023-05-28T11:09:42;24.70;99.90
51021;DHT22;38907;45.562;8.856;2023-05-28T11:14:48;24.80;99.90
51021;DHT22;38907;45.562;8.856;2023-05-28T11:19:52;24.80;99.90
51021;DHT22;38907;45.562;8.856;2023-05-28T11:24:56;24.70;99.90
51021;DHT22;38907;45.562;8.856;2023-05-28T11:30:01;24.50;99.90
51021;DHT22;38907;45.562;8.856;2023-05-28T11:35:05;24.60;99.90
51021;DHT22;38907;45.562;8.856;2023-05-28T11:40:09;25.00;99.90
51021;DHT22;38907;45.562;8.856;2023-05-28T11:45:12;25.20;99.90
51021;DHT22;38907;45.562;8.856;2023-05-28T11:50:16;25.30;99.90
51021;DHT22;38907;45.562;8.856;2023-05-28T11:55:18;25.30;99.90
51021;DHT22;38907;45.562;8.856;2023-05-28T12:00:20;25.30;99.90
51021;DHT22;38907;45.562;8.856;2023-05-28T12:05:37;25.20;99.90
51021;DHT22;38907;45.562;8.856;2023-05-28T12:10:39;25.20;99.90
51021;DHT22;38907;45.562;8.856;2023-05-28T12:15:41;25.50;99.90
51021;DHT22;38907;45.562;8.856;2023-05-28T12:20:45;25.70;99.90
51021;DHT22;38907;45.562;8.856;2023-05-28T12:25:48;25.70;99.90
51021;DHT22;38907;45.562;8.856;2023-05-28T12:30:52;25.70;99.90
51021;DHT22;38907;45.562;8.856;2023-05-28T12:35:56;25.90;99.90
51021;DHT22;38907;45.562;8.856;2023-05-28T12:41:00;25.90;99.90
51021;DHT22;38907;45.562;8.856;2023-05-28T12:46:02;25.60;99.90
51021;DHT22;38907;45.562;8.856;2023-05-28T12:51:05;25.70;99.90
51021;DHT22;38907;45.562;8.856;2023-05-28T12:56:08;25.80;99.90
51021;DHT22;38907;45.562;8.856;2023-05-28T13:01:10;25.90;99.90
51021;DHT22;38907;45.562;8.856;2023-05-28T13:06:13;25.80;99.90
51021;DHT22;38907;45.562;8.856;2023-05-28T13:11:15;26.00;99.90
51021;DHT22;38907;45.562;8.856;2023-05-28T13:16:17;26.10;99.90
51021;DHT22;38907;45.562;8.856;2023-05-28T13:21:20;26.10;99.90
51021;DHT22;38907;45.562;8.856;2023-05-28T13:26:22;26.20;99.90
51021;DHT22;38907;45.562;8.856;2023-05-28T13:31:25;26.20;99.90
51021;DHT22;38907;45.562;8.856;2023-05-28T13:36:29;26.40;99.90
51021;DHT22;38907;45.562;8.856;2023-05-28T13:41:31;26.30;99.90
51021;DHT22;38907;45.562;8.856;2023-05-28T13:46:33;26.30;99.90
51021;DHT22;38907;45.562;8.856;2023-05-28T13:51:37;26.40;99.90
51021;DHT22;38907;45.562;8.856;2023-05-28T13:56:42;26.50;99.90
51021;DHT22;38907;45.562;8.856;2023-05-28T14:01:44;26.70;99.90
51021;DHT22;38907;45.562;8.856;2023-05-28T14:06:47;26.50;99.90
51021;DHT22;38907;45.562;8.856;2023-05-28T14:11:49;26.20;99.90
51021;DHT22;38907;45.562;8.856;2023-05-28T14:16:51;26.00;99.90
51021;DHT22;38907;45.562;8.856;2023-05-28T14:21:54;26.10;99.30
51021;DHT22;38907;45.562;8.856;2023-05-28T14:26:56;26.30;99.90
51021;DHT22;38907;45.562;8.856;2023-05-28T14:31:58;26.40;98.30
51021;DHT22;38907;45.562;8.856;2023-05-28T14:37:01;26.50;99.90
51021;DHT22;38907;45.562;8.856;2023-05-28T14:42:03;26.50;99.90
51021;DHT22;38907;45.562;8.856;2023-05-28T14:47:06;26.70;99.20
51021;DHT22;38907;45.562;8.856;2023-05-28T14:52:23;26.50;99.90
51021;DHT22;38907;45.562;8.856;2023-05-28T14:57:26;26.40;99.60
51021;DHT22;38907;45.562;8.856;2023-05-28T15:02:28;26.60;99.30
51021;DHT22;38907;45.562;8.856;2023-05-28T15:07:32;26.90;99.00
51021;DHT22;38907;45.562;8.856;2023-05-28T15:12:34;27.20;99.80
51021;DHT22;38907;45.562;8.856;2023-05-28T15:17:36;27.40;99.60
51021;DHT22;38907;45.562;8.856;2023-05-28T15:22:39;26.90;98.70
51021;DHT22;38907;45.562;8.856;2023-05-28T15:27:41;26.90;99.90
51021;DHT22;38907;45.562;8.856;2023-05-28T15:32:43;27.10;99.00
51021;DHT22;38907;45.562;8.856;2023-05-28T15:37:47;27.10;97.80
51021;DHT22;38907;45.562;8.856;2023-05-28T15:42:50;27.10;98.30
51021;DHT22;38907;45.562;8.856;2023-05-28T15:47:54;27.20;98.00
51021;DHT22;38907;45.562;8.856;2023-05-28T15:52:57;27.10;98.20
51021;DHT22;38907;45.562;8.856;2023-05-28T15:57:59;26.70;97.10
51021;DHT22;38907;45.562;8.856;2023-05-28T16:03:03;26.60;98.90
51021;DHT22;38907;45.562;8.856;2023-05-28T16:08:07;26.90;98.40
51021;DHT22;38907;45.562;8.856;2023-05-28T16:13:13;27.20;99.10
51021;DHT22;38907;45.562;8.856;2023-05-28T16:18:15;27.30;98.10
51021;DHT22;38907;45.562;8.856;2023-05-28T16:23:21;27.20;98.30
51021;DHT22;38907;45.562;8.856;2023-05-28T16:28:23;27.20;97.60
51021;DHT22;38907;45.562;8.856;2023-05-28T16:33:27;27.10;97.70
51021;DHT22;38907;45.562;8.856;2023-05-28T16:38:31;26.40;97.50
51021;DHT22;38907;45.562;8.856;2023-05-28T16:43:33;25.40;99.00
51021;DHT22;38907;45.562;8.856;2023-05-28T16:48:35;24.20;99.90
51021;DHT22;38907;45.562;8.856;2023-05-28T16:53:39;23.50;99.60
51021;DHT22;38907;45.562;8.856;2023-05-28T16:58:41;23.80;99.90
51021;DHT22;38907;45.562;8.856;2023-05-28T17:03:43;23.50;99.90
51021;DHT22;38907;45.562;8.856;2023-05-28T17:08:46;23.20;99.90
51021;DHT22;38907;45.562;8.856;2023-05-28T17:13:48;22.80;99.90
51021;DHT22;38907;45.562;8.856;2023-05-28T17:18:50;22.50;99.90
51021;DHT22;38907;45.562;8.856;2023-05-28T17:23:53;22.60;99.90
51021;DHT22;38907;45.562;8.856;2023-05-28T17:28:55;22.50;99.90
51021;DHT22;38907;45.562;8.856;2023-05-28T17:33:57;22.30;99.90
51021;DHT22;38907;45.562;8.856;2023-05-28T17:39:00;22.30;99.90
51021;DHT22;38907;45.562;8.856;2023-05-28T17:44:02;22.00;99.90
51021;DHT22;38907;45.562;8.856;2023-05-28T17:49:06;22.10;99.90
51021;DHT22;38907;45.562;8.856;2023-05-28T17:54:09;21.70;99.90
51021;DHT22;38907;45.562;8.856;2023-05-28T17:59:12;21.60;99.90
51021;DHT22;38907;45.562;8.856;2023-05-28T18:04:14;21.40;99.90
51021;DHT22;38907;45.562;8.856;2023-05-28T18:09:18;21.20;99.90
51021;DHT22;38907;45.562;8.856;2023-05-28T18:14:20;21.30;99.90
51021;DHT22;38907;45.562;8.856;2023-05-28T18:19:22;21.30;99.90
51021;DHT22;38907;45.562;8.856;2023-05-28T18:24:26;21.20;99.90
51021;DHT22;38907;45.562;8.856;2023-05-28T18:29:28;21.10;99.90
51021;DHT22;38907;45.562;8.856;2023-05-28T18:34:33;20.60;99.90
51021;DHT22;38907;45.562;8.856;2023-05-28T18:39:37;20.30;99.90
51021;DHT22;38907;45.562;8.856;2023-05-28T18:44:40;20.30;99.90
51021;DHT22;38907;45.562;8.856;2023-05-28T18:49:42;20.10;99.90
51021;DHT22;38907;45.562;8.856;2023-05-28T18:54:45;20.20;99.90
51021;DHT22;38907;45.562;8.856;2023-05-28T18:59:47;20.20;99.90
51021;DHT22;38907;45.562;8.856;2023-05-28T19:04:50;20.10;99.90
51021;DHT22;38907;45.562;8.856;2023-05-28T19:09:54;20.00;99.90
51021;DHT22;38907;45.562;8.856;2023-05-28T19:14:56;19.90;99.90
51021;DHT22;38907;45.562;8.856;2023-05-28T19:20:04;19.90;99.90
51021;DHT22;38907;45.562;8.856;2023-05-28T19:25:09;19.70;99.90
51021;DHT22;38907;45.562;8.856;2023-05-28T19:30:11;19.50;99.90
51021;DHT22;38907;45.562;8.856;2023-05-28T19:35:13;19.30;99.90
51021;DHT22;38907;45.562;8.856;2023-05-28T19:40:17;19.30;99.90
51021;DHT22;38907;45.562;8.856;2023-05-28T19:45:19;19.20;99.90
51021;DHT22;38907;45.562;8.856;2023-05-28T19:50:21;19.10;99.90
51021;DHT22;38907;45.562;8.856;2023-05-28T19:55:24;19.10;99.90
51021;DHT22;38907;45.562;8.856;2023-05-28T20:00:27;19.00;99.90
51021;DHT22;38907;45.562;8.856;2023-05-28T20:05:29;19.00;99.90
51021;DHT22;38907;45.562;8.856;2023-05-28T20:10:32;18.90;99.90
51021;DHT22;38907;45.562;8.856;2023-05-28T20:15:34;18.90;99.90
51021;DHT22;38907;45.562;8.856;2023-05-28T20:20:38;18.90;99.90
51021;DHT22;38907;45.562;8.856;2023-05-28T20:25:42;19.00;99.90
51021;DHT22;38907;45.562;8.856;2023-05-28T20:30:45;18.90;99.90
51021;DHT22;38907;45.562;8.856;2023-05-28T20:35:47;19.00;99.90
51021;DHT22;38907;45.562;8.856;2023-05-28T20:40:51;19.00;99.90
51021;DHT22;38907;45.562;8.856;2023-05-28T20:45:54;19.10;99.90
51021;DHT22;38907;45.562;8.856;2023-05-28T20:50:56;19.10;99.90
51021;DHT22;38907;45.562;8.856;2023-05-28T20:55:59;19.20;99.90
51021;DHT22;38907;45.562;8.856;2023-05-28T21:01:02;19.10;99.90
51021;DHT22;38907;45.562;8.856;2023-05-28T21:06:04;19.10;99.90
51021;DHT22;38907;45.562;8.856;2023-05-28T21:11:08;19.00;99.90
51021;DHT22;38907;45.562;8.856;2023-05-28T21:16:09;19.10;99.90
51021;DHT22;38907;45.562;8.856;2023-05-28T21:21:12;19.10;99.90
51021;DHT22;38907;45.562;8.856;2023-05-28T21:26:15;19.20;99.90
51021;DHT22;38907;45.562;8.856;2023-05-28T21:31:17;19.20;99.90
51021;DHT22;38907;45.562;8.856;2023-05-28T21:36:19;19.30;99.90
51021;DHT22;38907;45.562;8.856;2023-05-28T21:41:22;19.40;99.90
51021;DHT22;38907;45.562;8.856;2023-05-28T21:46:24;19.30;99.90
51021;DHT22;38907;45.562;8.856;2023-05-28T21:51:26;19.30;99.90
51021;DHT22;38907;45.562;8.856;2023-05-28T21:56:30;19.30;99.90
51021;DHT22;38907;45.562;8.856;2023-05-28T22:01:32;19.30;99.90
51021;DHT22;38907;45.562;8.856;2023-05-28T22:06:34;19.30;99.90
51021;DHT22;38907;45.562;8.856;2023-05-28T22:11:37;19.20;99.90
51021;DHT22;38907;45.562;8.856;2023-05-28T22:16:39;19.20;99.90
51021;DHT22;38907;45.562;8.856;2023-05-28T22:21:41;19.20;99.90
51021;DHT22;38907;45.562;8.856;2023-05-28T22:26:44;19.20;99.90
51021;DHT22;38907;45.562;8.856;2023-05-28T22:31:47;19.30;99.90
51021;DHT22;38907;45.562;8.856;2023-05-28T22:36:49;19.20;99.90
51021;DHT22;38907;45.562;8.856;2023-05-28T22:41:52;19.20;99.90
51021;DHT22;38907;45.562;8.856;2023-05-28T22:46:54;19.30;99.90
51021;DHT22;38907;45.562;8.856;2023-05-28T22:51:57;19.30;99.90
51021;DHT22;38907;45.562;8.856;2023-05-28T22:57:02;19.30;99.90
51021;DHT22;38907;45.562;8.856;2023-05-28T23:02:04;19.20;99.90
51021;DHT22;38907;45.562;8.856;2023-05-28T23:07:06;19.20;99.90
51021;DHT22;38907;45.562;8.856;2023-05-28T23:12:10;19.20;99.90
51021;DHT22;38907;45.562;8.856;2023-05-28T23:17:12;19.20;99.90
51021;DHT22;38907;45.562;8.856;2023-05-28T23:22:17;19.20;99.90
51021;DHT22;38907;45.562;8.856;2023-05-28T23:27:20;19.30;99.90
51021;DHT22;38907;45.562;8.856;2023-05-28T23:32:22;19.30;99.90
51021;DHT22;38907;45.562;8.856;2023-05-28T23:37:24;19.20;99.90
51021;DHT22;38907;45.562;8.856;2023-05-28T23:42:28;19.30;99.90
51021;DHT22;38907;45.562;8.856;2023-05-28T23:47:30;19.20;99.90
51021;DHT22;38907;45.562;8.856;2023-05-28T23:52:32;19.20;99.90
51021;DHT22;38907;45.562;8.856;2023-05-28T23:57:35;19.10;99.90
